Terminal Aerodrome Forecast
Issued by NWS

Home | Current Version | Previous Version | Text Only | Print | Product List | Glossary On
Versions: 1 2 3 4 5 6 7 8 9 10 11 12 13 14 15 16 17 18 19 20 21 22 23 24 25 26 27 28 29 30
209
FTAK31 PANC 011738
TAFAVD
TAF
PAVD 011738Z 0118/0218 VRB03KT P6SM -RA BKN030 OVC040
     FM020000 27006KT P6SM -RA BKN030 BKN040
     FM020500 VRB03KT P6SM VCSH BKN045
     FM021200 VRB03KT P6SM VCSH BKN030
      AMD LTD TO CLD VIS AND WIND=

USA.gov is the U.S. government's official web portal to all federal, state and local government web resources and services.